Home > Products > Valid Products > TAF

000
FTUS42 KKEY 252300
TAFEYW
TAF
KEYW 252323Z 2600/2624 35008G15KT P6SM FEW035
     FM260400 02006KT P6SM FEW035
     FM261400 03010KT P6SM FEW035=



000
FTUS42 KKEY 251900 AAA
TAFEYW
TAF AMD
KEYW 251957Z 2520/2618 35014KT P6SM FEW040
     FM260100 36008KT P6SM SKC
     FM261400 02010KT P6SM FEW035=



000
FTUS42 KKEY 251700
TAFEYW
TAF
KEYW 251720Z 2518/2618 01008KT P6SM SKC=



000
FTUS42 KKEY 251700
TAFEYW
TAF
KEYW 251720Z 2518/2618 01008KT P6SM SKC=



000
FTUS42 KKEY 251100 RRA
TAFEYW
TAF
KEYW 251159Z 2512/2612 01010G15KT P6SM SKC
     FM252200 01008KT P6SM SKC=



000
FTUS42 KKEY 251100 RRA
TAFEYW
TAF
KEYW 251159Z 2512/2612 01010G15KT P6SM SKC
     FM252200 01008KT P6SM SKC=



000
FTUS42 KKEY 251100
TAFEYW
TAF
KEYW 251120Z 2512/2612 01011G20KT P6SM SKC
     FM252200 01008KT P6SM SKC=



000
FTUS42 KKEY 251100
TAFEYW
TAF
KEYW 251120Z 2512/2612 01011G20KT P6SM SKC
     FM252200 01008KT P6SM SKC=



000
FTUS42 KKEY 250800 AAA
TAFEYW
TAF AMD
KEYW 250838Z 2509/2606 02013G20KT P6SM SKC
     FM252200 01008KT P6SM SKC=



000
FTUS42 KKEY 250500
TAFEYW
TAF
KEYW 250521Z 2506/2606 02013G20KT P6SM SKC
     FM252200 01008KT P6SM SKC=



000
FTUS42 KKEY 242300
TAFEYW
TAF
KEYW 242330Z 2500/2524 02013G20KT P6SM FEW020 SCT050 SCT100
     FM251200 01012G20KT P6SM SCT025 SCT050
     FM251500 01014G22KT P6SM FEW025=



000
FTUS42 KKEY 241700
TAFEYW
TAF
KEYW 241732Z 2418/2518 03011G17KT P6SM VCSH SCT022 BKN030
     FM242200 01015G20KT P6SM SCT025
     FM251300 01014G18KT P6SM FEW025=



000
FTUS42 KKEY 241400 AAC
TAFEYW
TAF AMD
KEYW 241459Z 2415/2512 03011G17KT P6SM FEW015 BKN025 OVC040
     FM241600 01015G20KT P6SM SCT025=



000
FTUS42 KKEY 241300 AAB
TAFEYW
TAF AMD
KEYW 241352Z 2414/2512 05010G18KT P6SM FEW015 SCT060 OVC090
     FM241600 01015G20KT P6SM SCT025=



000
FTUS42 KKEY 241100 AAA
TAFEYW
TAF AMD
KEYW 241133Z 2412/2506 05010G18KT P6SM SCT015 BKN027 OVC060
     FM241600 01015G20KT P6SM SCT025=



000
FTUS42 KKEY 240800 AAA
TAFEYW
TAF AMD
KEYW 240851Z 2409/2506 05010G15KT P6SM VCSH SCT015 BKN025
     FM241200 03012G18KT 6SM -SHRA BKN025
     FM242100 01015G20KT P6SM SCT025=



000
FTUS42 KKEY 240500
TAFEYW
TAF
KEYW 240531Z 2406/2506 05010G15KT P6SM VCSH SCT015 BKN025
     FM241200 03012G18KT 6SM -SHRA BKN025
     FM242100 01015G20KT P6SM SCT025=



000
FTUS42 KKEY 232300
TAFEYW
TAF
KEYW 232327Z 2400/2424 05009KT P6SM VCSH SCT023 SCT040 OVC060
     FM240300 07015KT 6SM -SHRA SCT012 BKN040 OVC120
     FM241200 07015G22KT P6SM VCSH SCT025 BKN080 PROB30 2412/2418
      1SM SHRA SCT010 BKN020 OVC035
     FM241800 04015KT P6SM FEW025 SCT080=



000
FTUS42 KKEY 232300 AAC
TAFEYW
TAF AMD
KEYW 232316Z 2323/2418 05009KT P6SM VCSH SCT023 SCT040 OVC060
      TEMPO 2323/2324 5SM -SHRA BKN025 OVC050=



000
FTUS42 KKEY 232200 AAB
TAFEYW
TAF AMD
KEYW 232253Z 2323/2418 05009KT P6SM VCSH SCT023 SCT040 OVC060
      TEMPO 2323/2324 3SM +RA SCT012 BKN025 OVC050=



000
FTUS42 KKEY 231900 AAA
TAFEYW
TAF AMD
KEYW 231922Z 2319/2418 06010KT 3SM -RA SCT014 SCT030 OVC060
      TEMPO 2319/2321 1SM +RA SCT012 BKN015 OVC050
     FM232100 05009KT P6SM VCSH SCT023 SCT040 OVC060=



000
FTUS42 KKEY 231900 AAA
TAFEYW
TAF AMD
KEYW 231922Z 2319/2418 06010KT 3SM -RA SCT014 SCT030 OVC060
      TEMPO 2319/2321 1SM +RA SCT012 BKN015 OVC050
     FM232100 05009KT P6SM VCSH SCT023 SCT040 OVC060=



000
FTUS42 KKEY 231700 RRA
TAFEYW
TAF
KEYW 231744Z 2318/2418 09010G14KT P6SM VCSH SCT015 BKN030 OVC060
      TEMPO 2318/2319 1SM +RA SCT012 BKN023
     FM231900 06010KT 3SM -RA SCT014 SCT030 OVC060
     FM232100 05009KT P6SM VCSH SCT023 SCT040 OVC060=



000
FTUS42 KKEY 231700 RRA
TAFEYW
TAF
KEYW 231744Z 2318/2418 09010G14KT P6SM VCSH SCT015 BKN030 OVC060
      TEMPO 2318/2319 1SM +RA SCT012 BKN023
     FM231900 06010KT 3SM -RA SCT014 SCT030 OVC060
     FM232100 05009KT P6SM VCSH SCT023 SCT040 OVC060=



000
FTUS42 KKEY 231600 AAD
TAFEYW
TAF AMD
KEYW 231615Z 2316/2412 07010KT P6SM VCSH SCT016 BKN050 OVC080
     FM231620 06010G14KT 3SM -RA SCT012 BKN020 OVC060
     FM231700 06010KT P6SM VCSH SCT014 SCT030 OVC060=



000
FTUS42 KKEY 231600 AAD
TAFEYW
TAF AMD
KEYW 231615Z 2316/2412 07010KT P6SM VCSH SCT016 BKN050 OVC080
     FM231620 06010G14KT 3SM -RA SCT012 BKN020 OVC060
     FM231700 06010KT P6SM VCSH SCT014 SCT030 OVC060=



000
FTUS42 KKEY 231500 AAC
TAFEYW
TAF AMD
KEYW 231513Z 2315/2412 07010KT P6SM VCSH SCT016 BKN050 OVC080=



000
FTUS42 KKEY 231200 AAB
TAFEYW
TAF AMD
KEYW 231256Z 2313/2412 09010KT P6SM VCSH SCT015 BKN030 OVC090
     FM231500 09011KT 6SM -RA VCSH BKN035 OVC100=



000
FTUS42 KKEY 231200 RRA
TAFEYW
TAF
KEYW 231210Z 2312/2412 10013G18KT P6SM VCSH SCT015 BKN030 OVC090
     FM231500 09011KT 6SM -RA VCSH BKN035 OVC100=



000
FTUS42 KKEY 231100 AAA
TAFEYW
TAF AMD
KEYW 231129Z 2311/2406 10013G18KT P6SM -RA SCT015 BKN030 OVC090
     FM231500 09011KT 6SM -RA VCSH BKN035 OVC100=



000
FTUS42 KKEY 230800 AAA
TAFEYW
TAF AMD
KEYW 230823Z 2308/2406 10013G18KT P6SM -RA SCT015 OVC110
      TEMPO 2308/2312 BKN015
     FM231500 09011KT 6SM -RA VCSH BKN035 OVC100=



000
FTUS42 KKEY 230500
TAFEYW
TAF
KEYW 230540Z 2306/2406 08008KT P6SM -RA SCT020 OVC110
     FM231500 09011KT 6SM -RA VCSH BKN035 OVC100=



000
FTUS42 KKEY 230100 AAA
TAFEYW
TAF AMD
KEYW 230104Z 2301/2324 07011KT P6SM VCSH SCT025 BKN080 OVC110
     FM231100 11011KT 6SM -RA BKN035 OVC100=



000
FTUS42 KKEY 230100 AAA
TAFEYW
TAF AMD
KEYW 230104Z 2301/2324 07011KT P6SM VCSH SCT025 BKN080 OVC110
     FM231100 11011KT 6SM -RA BKN035 OVC100=



000
FTUS42 KKEY 222300 RRA
TAFEYW
TAF
KEYW 222347Z 2300/2324 18009KT 6SM -RA BKN035 OVC100
      TEMPO 2300/2304 1SM +SHRA BKN015 OVC035=



000
FTUS42 KKEY 222300 RRA
TAFEYW
TAF
KEYW 222347Z 2300/2324 18009KT 6SM -RA BKN035 OVC100
      TEMPO 2300/2304 1SM +SHRA BKN015 OVC035=



    US Dept of Commerce
    National Oceanic and Atmospheric Administration
    National Weather Service
    1325 East West Highway
    Silver Spring, MD 20910
    Page Author: NWS Internet Services Team
Disclaimer
Information Quality
Credits
Glossary
Privacy Policy
Freedom of Information Act (FOIA)
About Us
Career Opportunities